createdAt,value
2022-10-13T00:00:15.076Z,1016.47
2022-10-13T00:01:15.152Z,1016.42
2022-10-13T00:02:15.054Z,1016.41
2022-10-13T00:03:15.045Z,1016.46
2022-10-13T00:04:15.046Z,1016.41
2022-10-13T00:05:15.015Z,1016.43
2022-10-13T00:06:15.010Z,1016.42
2022-10-13T00:07:15.000Z,1016.39
2022-10-13T00:08:14.982Z,1016.38
2022-10-13T00:09:15.009Z,1016.37
2022-10-13T00:10:14.982Z,1016.39
2022-10-13T00:11:14.986Z,1016.35
2022-10-13T00:12:15.000Z,1016.32
2022-10-13T00:13:14.932Z,1016.35
2022-10-13T00:14:14.915Z,1016.30
2022-10-13T00:15:14.917Z,1016.31
2022-10-13T00:16:15.054Z,1016.37
2022-10-13T00:17:14.883Z,1016.32
2022-10-13T00:18:14.868Z,1016.26
2022-10-13T00:19:15.255Z,1016.27
2022-10-13T00:20:14.856Z,1016.29
2022-10-13T00:21:14.850Z,1016.30
2022-10-13T00:22:14.869Z,1016.27
2022-10-13T00:23:14.874Z,1016.32
2022-10-13T00:24:14.810Z,1016.30
2022-10-13T00:25:14.808Z,1016.22
2022-10-13T00:26:14.798Z,1016.29
2022-10-13T00:27:14.773Z,1016.25
2022-10-13T00:28:14.845Z,1016.23
2022-10-13T00:29:14.764Z,1016.16
2022-10-13T00:30:14.739Z,1016.16
2022-10-13T00:31:14.741Z,1016.14
2022-10-13T00:32:14.726Z,1016.13
2022-10-13T00:33:14.741Z,1016.14
2022-10-13T00:34:14.705Z,1016.19
2022-10-13T00:35:14.702Z,1016.16
2022-10-13T00:36:14.683Z,1016.11
2022-10-13T00:37:14.674Z,1016.17
2022-10-13T00:38:14.655Z,1016.08
2022-10-13T00:39:14.682Z,1016.04
2022-10-13T00:40:14.661Z,1016.05
2022-10-13T00:41:14.665Z,1016.11
2022-10-13T00:42:14.623Z,1016.06
2022-10-13T00:43:14.613Z,1016.11
2022-10-13T00:44:14.606Z,1016.08
2022-10-13T00:45:14.606Z,1016.10
2022-10-13T00:46:14.573Z,1016.14
2022-10-13T00:47:14.556Z,1016.17
2022-10-13T00:48:14.556Z,1016.16
2022-10-13T00:49:14.575Z,1016.15
2022-10-13T00:50:14.523Z,1016.15
2022-10-13T00:51:14.519Z,1016.14
2022-10-13T00:52:14.506Z,1016.15
2022-10-13T00:53:14.496Z,1016.12
2022-10-13T00:54:14.485Z,1016.11
2022-10-13T00:55:14.506Z,1016.13
2022-10-13T00:56:14.458Z,1016.13
2022-10-13T00:57:14.464Z,1016.15
2022-10-13T00:58:14.434Z,1016.10
2022-10-13T00:59:14.454Z,1016.13
2022-10-13T01:00:14.415Z,1016.10
2022-10-13T01:01:14.491Z,1016.06
2022-10-13T01:02:14.393Z,1016.05
2022-10-13T01:03:14.386Z,1016.06
2022-10-13T01:04:14.401Z,1016.08
2022-10-13T01:05:14.368Z,1016.06
2022-10-13T01:06:14.365Z,1016.04
2022-10-13T01:07:14.350Z,1016.06
2022-10-13T01:08:14.360Z,1016.07
2022-10-13T01:09:14.326Z,1015.99
2022-10-13T01:10:14.336Z,1015.89
2022-10-13T01:11:14.299Z,1015.90
2022-10-13T01:12:14.323Z,1015.95
2022-10-13T01:13:14.280Z,1015.90
2022-10-13T01:14:14.292Z,1015.89
2022-10-13T01:15:14.252Z,1015.90
2022-10-13T01:16:14.264Z,1015.88
2022-10-13T01:17:14.231Z,1015.92
2022-10-13T01:18:14.212Z,1015.85
2022-10-13T01:19:14.217Z,1015.88
2022-10-13T01:20:14.251Z,1015.86
2022-10-13T01:21:14.193Z,1015.85
2022-10-13T01:22:14.210Z,1015.87
2022-10-13T01:23:14.165Z,1015.85
2022-10-13T01:24:14.151Z,1015.80
2022-10-13T01:25:14.169Z,1015.83
2022-10-13T01:26:14.149Z,1015.84
2022-10-13T01:27:14.114Z,1015.78
2022-10-13T01:28:14.167Z,1015.83
2022-10-13T01:29:14.144Z,1015.87
2022-10-13T01:30:14.089Z,1015.86
2022-10-13T01:31:14.105Z,1015.88
2022-10-13T01:32:14.074Z,1015.83
2022-10-13T01:33:14.069Z,1015.83
2022-10-13T01:34:14.034Z,1015.85
2022-10-13T01:35:14.075Z,1015.77
2022-10-13T01:36:14.021Z,1015.80
2022-10-13T01:37:14.034Z,1015.86
2022-10-13T01:38:13.988Z,1015.84
2022-10-13T01:39:14.002Z,1015.82
2022-10-13T01:40:13.977Z,1015.80
2022-10-13T01:41:13.979Z,1015.83
2022-10-13T01:42:13.973Z,1015.77
2022-10-13T01:43:13.949Z,1015.79
2022-10-13T01:44:13.944Z,1015.77
2022-10-13T01:45:13.930Z,1015.80
2022-10-13T01:46:13.958Z,1015.74
2022-10-13T01:47:13.890Z,1015.70
2022-10-13T01:48:14.848Z,1015.73
2022-10-13T01:49:13.876Z,1015.73
2022-10-13T01:50:13.881Z,1015.78
2022-10-13T01:51:13.885Z,1015.74
2022-10-13T01:52:13.851Z,1015.72
2022-10-13T01:53:13.868Z,1015.72
2022-10-13T01:54:13.828Z,1015.70
2022-10-13T01:55:13.811Z,1015.71
2022-10-13T01:56:13.799Z,1015.67
2022-10-13T01:57:13.788Z,1015.66
2022-10-13T01:58:13.785Z,1015.68
2022-10-13T01:59:13.802Z,1015.69
2022-10-13T02:00:13.747Z,1015.66
2022-10-13T02:01:13.743Z,1015.68
2022-10-13T02:02:13.744Z,1015.69
2022-10-13T02:03:13.723Z,1015.65
2022-10-13T02:04:13.740Z,1015.68
2022-10-13T02:05:13.713Z,1015.57
2022-10-13T02:06:13.733Z,1015.62
2022-10-13T02:07:13.684Z,1015.59
2022-10-13T02:08:13.664Z,1015.57
2022-10-13T02:09:13.665Z,1015.47
2022-10-13T02:10:13.657Z,1015.54
2022-10-13T02:11:13.628Z,1015.47
2022-10-13T02:12:13.651Z,1015.44
2022-10-13T02:13:13.609Z,1015.48
2022-10-13T02:14:13.625Z,1015.46
2022-10-13T02:15:13.619Z,1015.46
2022-10-13T02:16:13.577Z,1015.42
2022-10-13T02:17:13.556Z,1015.41
2022-10-13T02:18:13.569Z,1015.45
2022-10-13T02:19:13.555Z,1015.46
2022-10-13T02:20:13.528Z,1015.45
2022-10-13T02:21:13.576Z,1015.42
2022-10-13T02:22:13.508Z,1015.42
2022-10-13T02:23:13.495Z,1015.45
2022-10-13T02:24:14.929Z,1015.48
2022-10-13T02:25:13.485Z,1015.47
2022-10-13T02:26:13.473Z,1015.49
2022-10-13T02:27:13.498Z,1015.46
2022-10-13T02:28:13.461Z,1015.44
2022-10-13T02:29:13.421Z,1015.53
2022-10-13T02:30:13.413Z,1015.42
2022-10-13T02:31:13.411Z,1015.45
2022-10-13T02:32:13.418Z,1015.43
2022-10-13T02:33:13.399Z,1015.46
2022-10-13T02:34:13.407Z,1015.44
2022-10-13T02:35:13.394Z,1015.41
2022-10-13T02:36:13.355Z,1015.44
2022-10-13T02:37:13.341Z,1015.47
2022-10-13T02:38:13.326Z,1015.43
2022-10-13T02:39:13.329Z,1015.45
2022-10-13T02:40:13.329Z,1015.50
2022-10-13T02:41:13.310Z,1015.45
2022-10-13T02:42:13.311Z,1015.49
2022-10-13T02:43:13.274Z,1015.49
2022-10-13T02:44:13.262Z,1015.43
2022-10-13T02:45:13.272Z,1015.40
2022-10-13T02:46:13.322Z,1015.46
2022-10-13T02:47:13.263Z,1015.45
2022-10-13T02:48:13.207Z,1015.45
2022-10-13T02:49:13.203Z,1015.39
2022-10-13T02:50:13.190Z,1015.41
2022-10-13T02:51:13.185Z,1015.43
2022-10-13T02:52:13.203Z,1015.37
2022-10-13T02:53:13.165Z,1015.42
2022-10-13T02:54:13.145Z,1015.39
2022-10-13T02:55:13.134Z,1015.38
2022-10-13T02:56:13.171Z,1015.42
2022-10-13T02:57:13.145Z,1015.35
2022-10-13T02:58:13.140Z,1015.37
2022-10-13T02:59:13.098Z,1015.41
2022-10-13T03:00:13.082Z,1015.38
2022-10-13T03:01:13.131Z,1015.36
2022-10-13T03:02:13.069Z,1015.33
2022-10-13T03:03:13.058Z,1015.27
2022-10-13T03:04:13.068Z,1015.32
2022-10-13T03:05:13.050Z,1015.33
2022-10-13T03:06:13.009Z,1015.35
2022-10-13T03:07:13.003Z,1015.28
2022-10-13T03:08:12.992Z,1015.30
2022-10-13T03:09:12.973Z,1015.28
2022-10-13T03:10:13.005Z,1015.24
2022-10-13T03:11:12.958Z,1015.25
2022-10-13T03:12:12.939Z,1015.27
2022-10-13T03:13:12.939Z,1015.22
2022-10-13T03:14:12.951Z,1015.22
2022-10-13T03:15:12.910Z,1015.24
2022-10-13T03:16:12.922Z,1015.23
2022-10-13T03:17:13.607Z,1015.25
2022-10-13T03:18:12.871Z,1015.23
2022-10-13T03:19:12.870Z,1015.27
2022-10-13T03:20:12.874Z,1015.20
2022-10-13T03:21:12.862Z,1015.20
2022-10-13T03:22:12.832Z,1015.19
2022-10-13T03:23:12.842Z,1015.18
2022-10-13T03:24:12.817Z,1015.18
2022-10-13T03:25:12.823Z,1015.15
2022-10-13T03:26:12.796Z,1015.12
2022-10-13T03:27:12.812Z,1015.11
2022-10-13T03:28:12.813Z,1015.10
2022-10-13T03:29:12.770Z,1015.17
2022-10-13T03:30:12.744Z,1015.09
2022-10-13T03:31:12.746Z,1015.10
2022-10-13T03:32:12.715Z,1015.09
2022-10-13T03:33:12.756Z,1015.12
2022-10-13T03:34:12.710Z,1015.03
2022-10-13T03:35:12.715Z,1015.02
2022-10-13T03:36:12.706Z,1015.07
2022-10-13T03:37:12.666Z,1015.00
2022-10-13T03:38:12.667Z,1014.98
2022-10-13T03:39:12.646Z,1014.97
2022-10-13T03:40:12.657Z,1015.01
2022-10-13T03:41:12.632Z,1015.02
2022-10-13T03:42:12.608Z,1014.99
2022-10-13T03:43:12.599Z,1014.96
2022-10-13T03:44:12.606Z,1015.01
2022-10-13T03:45:12.631Z,1014.91
2022-10-13T03:46:12.568Z,1014.92
2022-10-13T03:47:12.562Z,1014.92
2022-10-13T03:48:12.538Z,1014.91
2022-10-13T03:49:12.538Z,1014.90
2022-10-13T03:50:12.520Z,1014.92
2022-10-13T03:51:14.656Z,1014.83
2022-10-13T03:52:12.523Z,1014.84
2022-10-13T03:53:12.491Z,1014.89
2022-10-13T03:54:12.521Z,1014.89
2022-10-13T03:55:12.521Z,1014.86
2022-10-13T03:56:12.467Z,1014.93
2022-10-13T03:57:12.477Z,1014.90
2022-10-13T03:58:12.443Z,1014.95
2022-10-13T03:59:12.442Z,1014.88
2022-10-13T04:00:12.410Z,1014.92
2022-10-13T04:01:13.363Z,1014.89
2022-10-13T04:02:12.421Z,1014.86
2022-10-13T04:03:12.417Z,1014.91
2022-10-13T04:04:12.383Z,1014.89
2022-10-13T04:05:12.377Z,1014.91
2022-10-13T04:06:12.351Z,1014.87
2022-10-13T04:07:12.391Z,1014.86
2022-10-13T04:08:12.325Z,1014.86
2022-10-13T04:09:12.426Z,1014.81
2022-10-13T04:10:13.759Z,1014.84
2022-10-13T04:11:12.308Z,1014.82
2022-10-13T04:12:14.281Z,1014.85
2022-10-13T04:13:12.267Z,1014.84
2022-10-13T04:14:12.259Z,1014.80
2022-10-13T04:15:12.258Z,1014.82
2022-10-13T04:16:12.247Z,1014.81
2022-10-13T04:17:12.671Z,1014.76
2022-10-13T04:18:12.335Z,1014.82
2022-10-13T04:19:12.239Z,1014.83
2022-10-13T04:20:12.189Z,1014.85
2022-10-13T04:21:12.206Z,1014.79
2022-10-13T04:22:13.143Z,1014.81
2022-10-13T04:23:12.188Z,1014.82
2022-10-13T04:24:12.151Z,1014.79
2022-10-13T04:25:12.146Z,1014.80
2022-10-13T04:26:12.177Z,1014.78
2022-10-13T04:27:12.119Z,1014.78
2022-10-13T04:28:12.133Z,1014.77
2022-10-13T04:29:12.097Z,1014.76
2022-10-13T04:30:13.568Z,1014.78
2022-10-13T04:31:12.102Z,1014.77
2022-10-13T04:32:12.064Z,1014.82
2022-10-13T04:33:12.052Z,1014.78
2022-10-13T04:34:12.042Z,1014.75
2022-10-13T04:35:12.092Z,1014.73
2022-10-13T04:36:12.029Z,1014.69
2022-10-13T04:37:12.811Z,1014.69
2022-10-13T04:38:12.003Z,1014.72
2022-10-13T04:39:11.995Z,1014.73
2022-10-13T04:40:11.986Z,1014.74
2022-10-13T04:41:11.997Z,1014.68
2022-10-13T04:42:11.966Z,1014.58
2022-10-13T04:43:11.957Z,1014.60
2022-10-13T04:44:11.943Z,1014.58
2022-10-13T04:45:11.925Z,1014.62
2022-10-13T04:46:11.936Z,1014.68
2022-10-13T04:47:11.902Z,1014.55
2022-10-13T04:48:11.923Z,1014.69
2022-10-13T04:49:11.934Z,1014.63
2022-10-13T04:50:11.888Z,1014.64
2022-10-13T04:51:11.856Z,1014.67
2022-10-13T04:52:13.306Z,1014.66
2022-10-13T04:53:15.435Z,1014.64
2022-10-13T04:54:13.007Z,1014.64
2022-10-13T04:55:11.817Z,1014.63
2022-10-13T04:56:11.794Z,1014.61
2022-10-13T04:57:11.795Z,1014.65
2022-10-13T04:58:11.776Z,1014.56
2022-10-13T04:59:11.767Z,1014.62
2022-10-13T05:00:11.779Z,1014.57
2022-10-13T05:01:11.785Z,1014.54
2022-10-13T05:02:11.743Z,1014.57
2022-10-13T05:03:11.717Z,1014.61
2022-10-13T05:04:11.718Z,1014.66
2022-10-13T05:05:11.724Z,1014.60
2022-10-13T05:06:11.723Z,1014.65
2022-10-13T05:07:19.130Z,1014.62
2022-10-13T05:08:12.726Z,1014.62
2022-10-13T05:09:11.670Z,1014.58
2022-10-13T05:10:11.660Z,1014.57
2022-10-13T05:11:11.649Z,1014.59
2022-10-13T05:12:11.642Z,1014.56
2022-10-13T05:13:11.658Z,1014.60
2022-10-13T05:14:11.639Z,1014.53
2022-10-13T05:15:11.708Z,1014.54
2022-10-13T05:16:11.681Z,1014.59
2022-10-13T05:17:11.602Z,1014.52
2022-10-13T05:18:12.516Z,1014.51
2022-10-13T05:19:15.313Z,1014.47
2022-10-13T05:20:11.549Z,1014.50
2022-10-13T05:21:11.523Z,1014.52
2022-10-13T05:22:11.557Z,1014.57
2022-10-13T05:23:11.522Z,1014.60
2022-10-13T05:24:11.498Z,1014.53
2022-10-13T05:25:11.485Z,1014.53
2022-10-13T05:26:11.471Z,1014.54
2022-10-13T05:27:11.481Z,1014.50
2022-10-13T05:28:11.509Z,1014.43
2022-10-13T05:29:11.465Z,1014.41
2022-10-13T05:30:11.437Z,1014.43
2022-10-13T05:31:11.410Z,1014.49
2022-10-13T05:32:11.410Z,1014.48
2022-10-13T05:33:11.385Z,1014.47
2022-10-13T05:34:11.415Z,1014.48
2022-10-13T05:35:12.820Z,1014.54
2022-10-13T05:36:11.450Z,1014.49
2022-10-13T05:37:12.804Z,1014.54
2022-10-13T05:38:11.471Z,1014.43
2022-10-13T05:39:11.438Z,1014.43
2022-10-13T05:40:11.333Z,1014.36
2022-10-13T05:41:11.287Z,1014.50
2022-10-13T05:42:11.307Z,1014.46
2022-10-13T05:43:11.289Z,1014.44
2022-10-13T05:44:11.290Z,1014.42
2022-10-13T05:45:11.311Z,1014.41
2022-10-13T05:46:11.403Z,1014.38
2022-10-13T05:47:11.288Z,1014.38
2022-10-13T05:48:11.675Z,1014.39
2022-10-13T05:49:12.695Z,1014.33
2022-10-13T05:50:11.389Z,1014.38
2022-10-13T05:51:11.667Z,1014.42
2022-10-13T05:52:11.227Z,1014.36
2022-10-13T05:53:11.171Z,1014.32
2022-10-13T05:54:11.161Z,1014.27
2022-10-13T05:55:11.163Z,1014.34
2022-10-13T05:56:11.163Z,1014.40
2022-10-13T05:57:11.362Z,1014.42
2022-10-13T05:58:11.117Z,1014.39
2022-10-13T05:59:11.107Z,1014.31
2022-10-13T06:00:11.079Z,1014.31
2022-10-13T06:01:11.106Z,1014.33
2022-10-13T06:02:11.159Z,1014.31
2022-10-13T06:03:11.045Z,1014.30
2022-10-13T06:04:12.513Z,1014.28
2022-10-13T06:05:11.036Z,1014.28
2022-10-13T06:06:11.171Z,1014.31
2022-10-13T06:07:11.047Z,1014.29
2022-10-13T06:08:11.043Z,1014.25
2022-10-13T06:09:10.987Z,1014.21
2022-10-13T06:10:10.977Z,1014.22
2022-10-13T06:11:10.969Z,1014.20
2022-10-13T06:12:10.955Z,1014.21
2022-10-13T06:13:10.957Z,1014.18
2022-10-13T06:14:10.986Z,1014.18
2022-10-13T06:15:10.939Z,1014.09
2022-10-13T06:16:10.938Z,1014.17
2022-10-13T06:17:10.917Z,1014.18
2022-10-13T06:18:10.910Z,1014.07
2022-10-13T06:19:10.961Z,1014.06
2022-10-13T06:20:10.883Z,1014.11
2022-10-13T06:21:10.861Z,1014.08
2022-10-13T06:22:11.805Z,1014.03
2022-10-13T06:23:10.829Z,1014.04
2022-10-13T06:24:10.849Z,1014.00
2022-10-13T06:25:10.840Z,1014.06
2022-10-13T06:26:10.828Z,1014.16
2022-10-13T06:27:10.817Z,1014.09
2022-10-13T06:28:10.780Z,1014.05
2022-10-13T06:29:10.799Z,1014.02
2022-10-13T06:30:10.750Z,1013.95
2022-10-13T06:31:10.774Z,1013.93
2022-10-13T06:32:10.758Z,1013.91
2022-10-13T06:33:10.725Z,1013.92
2022-10-13T06:34:10.736Z,1013.90
2022-10-13T06:35:10.698Z,1013.95
2022-10-13T06:36:10.687Z,1013.99
2022-10-13T06:37:10.714Z,1013.95
2022-10-13T06:38:10.681Z,1014.00
2022-10-13T06:39:10.675Z,1014.03
2022-10-13T06:40:10.631Z,1014.05
2022-10-13T06:41:10.638Z,1014.06
2022-10-13T06:42:10.815Z,1014.03
2022-10-13T06:43:10.621Z,1014.21
2022-10-13T06:44:10.672Z,1014.13
2022-10-13T06:45:10.611Z,1014.16
2022-10-13T06:46:10.587Z,1014.11
2022-10-13T06:47:11.374Z,1014.09
2022-10-13T06:48:10.559Z,1014.16
2022-10-13T06:49:10.544Z,1014.18
2022-10-13T06:50:10.536Z,1014.13
2022-10-13T06:51:10.528Z,1014.14
2022-10-13T06:52:10.542Z,1014.10
2022-10-13T06:53:10.531Z,1014.11
2022-10-13T06:54:10.494Z,1014.08
2022-10-13T06:55:10.501Z,1014.15
2022-10-13T06:56:10.480Z,1014.18
2022-10-13T06:57:10.457Z,1014.18
2022-10-13T06:58:10.490Z,1014.21
2022-10-13T06:59:10.445Z,1014.15
2022-10-13T07:00:10.447Z,1014.16
2022-10-13T07:01:10.438Z,1014.11
2022-10-13T07:02:10.449Z,1014.08
2022-10-13T07:03:10.394Z,1014.13
2022-10-13T07:04:10.381Z,1014.24
2022-10-13T07:05:10.377Z,1014.22
2022-10-13T07:06:10.368Z,1014.27
2022-10-13T07:07:10.390Z,1014.23
2022-10-13T07:08:11.005Z,1014.16
2022-10-13T07:09:10.977Z,1014.22
2022-10-13T07:10:10.329Z,1014.26
2022-10-13T07:11:15.343Z,1014.23
2022-10-13T07:12:11.349Z,1014.15
2022-10-13T07:13:10.304Z,1014.11
2022-10-13T07:14:10.525Z,1014.14
2022-10-13T07:15:10.261Z,1014.21
2022-10-13T07:16:10.241Z,1014.17
2022-10-13T07:17:10.240Z,1014.16
2022-10-13T07:18:10.265Z,1014.20
2022-10-13T07:19:10.216Z,1014.20
2022-10-13T07:20:10.358Z,1014.25
2022-10-13T07:21:10.270Z,1014.26
2022-10-13T07:22:10.255Z,1014.22
2022-10-13T07:23:10.169Z,1014.20
2022-10-13T07:24:10.197Z,1014.23
2022-10-13T07:25:10.251Z,1014.19
2022-10-13T07:26:10.151Z,1014.23
2022-10-13T07:27:10.129Z,1014.20
2022-10-13T07:28:10.235Z,1014.25
2022-10-13T07:29:10.101Z,1014.30
2022-10-13T07:30:11.015Z,1014.21
2022-10-13T07:31:10.565Z,1014.19
2022-10-13T07:32:10.088Z,1014.14
2022-10-13T07:33:10.062Z,1014.17
2022-10-13T07:34:10.050Z,1014.20
2022-10-13T07:35:10.054Z,1014.21
2022-10-13T07:36:10.025Z,1014.16
2022-10-13T07:37:10.025Z,1014.14
2022-10-13T07:38:10.007Z,1014.13
2022-10-13T07:39:10.001Z,1014.12
2022-10-13T07:40:09.998Z,1014.18
2022-10-13T07:41:09.966Z,1014.22
2022-10-13T07:42:09.966Z,1014.24
2022-10-13T07:43:09.941Z,1014.17
2022-10-13T07:44:09.954Z,1014.13
2022-10-13T07:45:09.949Z,1014.16
2022-10-13T07:46:09.968Z,1014.10
2022-10-13T07:47:09.919Z,1014.12
2022-10-13T07:48:09.921Z,1014.11
2022-10-13T07:49:12.367Z,1014.10
2022-10-13T07:50:10.939Z,1014.11
2022-10-13T07:51:09.861Z,1014.14
2022-10-13T07:52:09.861Z,1014.16
2022-10-13T07:53:09.820Z,1014.12
2022-10-13T07:54:09.867Z,1014.21
2022-10-13T07:55:09.833Z,1014.13
2022-10-13T07:56:09.855Z,1014.12
2022-10-13T07:57:09.817Z,1014.18
2022-10-13T07:58:09.793Z,1014.17
2022-10-13T07:59:09.763Z,1014.22
2022-10-13T08:00:09.799Z,1014.21
2022-10-13T08:01:09.751Z,1014.19
2022-10-13T08:02:09.750Z,1014.22
2022-10-13T08:03:09.727Z,1014.16
2022-10-13T08:04:09.718Z,1014.20
2022-10-13T08:05:09.691Z,1014.20
2022-10-13T08:06:09.715Z,1014.21
2022-10-13T08:07:09.695Z,1014.13
2022-10-13T08:08:09.682Z,1014.15
2022-10-13T08:09:09.656Z,1014.17
2022-10-13T08:10:09.677Z,1014.16
2022-10-13T08:11:10.642Z,1014.18
2022-10-13T08:12:09.781Z,1014.17
2022-10-13T08:13:09.615Z,1014.28
2022-10-13T08:14:09.597Z,1014.20
2022-10-13T08:15:09.595Z,1014.19
2022-10-13T08:16:09.579Z,1014.17
2022-10-13T08:17:09.581Z,1014.22
2022-10-13T08:18:09.610Z,1014.25
2022-10-13T08:19:09.609Z,1014.16
2022-10-13T08:20:09.538Z,1014.15
2022-10-13T08:21:39.316Z,1014.11
2022-10-13T08:22:10.527Z,1014.11
2022-10-13T08:23:09.621Z,1014.14
2022-10-13T08:24:09.527Z,1014.14
2022-10-13T08:25:09.495Z,1014.16
2022-10-13T08:26:09.498Z,1014.16
2022-10-13T08:27:09.508Z,1014.19
2022-10-13T08:28:09.440Z,1014.18
2022-10-13T08:29:21.325Z,1014.19
2022-10-13T08:30:10.563Z,1014.23
2022-10-13T08:31:09.528Z,1014.15
2022-10-13T08:32:09.403Z,1014.20
2022-10-13T08:33:09.393Z,1014.21
2022-10-13T08:34:09.376Z,1014.16
2022-10-13T08:35:09.390Z,1014.15
2022-10-13T08:36:09.378Z,1014.19
2022-10-13T08:37:09.363Z,1014.20
2022-10-13T08:38:09.342Z,1014.22
2022-10-13T08:39:09.343Z,1014.25
2022-10-13T08:40:09.358Z,1014.17
2022-10-13T08:41:09.304Z,1014.17
2022-10-13T08:42:09.326Z,1014.22
2022-10-13T08:43:09.293Z,1014.20
2022-10-13T08:45:36.406Z,1014.28
2022-10-13T08:46:10.237Z,1014.21
2022-10-13T08:47:09.265Z,1014.19
2022-10-13T08:48:09.897Z,1014.17
2022-10-13T08:49:09.223Z,1014.13
2022-10-13T08:50:10.179Z,1014.13
2022-10-13T08:51:09.206Z,1014.08
2022-10-13T08:52:09.181Z,1014.02
2022-10-13T08:53:16.361Z,1014.11
2022-10-13T08:54:09.167Z,1014.08
2022-10-13T08:55:09.175Z,1014.08
2022-10-13T08:56:09.842Z,1014.03
2022-10-13T08:57:09.132Z,1013.99
2022-10-13T08:58:09.159Z,1014.00
2022-10-13T08:59:09.538Z,1014.00
2022-10-13T09:00:09.108Z,1013.96
2022-10-13T09:01:09.478Z,1013.94
2022-10-13T09:02:09.137Z,1013.97
2022-10-13T09:03:09.074Z,1013.93
2022-10-13T09:04:09.374Z,1013.95
2022-10-13T09:05:09.351Z,1013.91
2022-10-13T09:06:09.159Z,1013.95
2022-10-13T09:07:09.281Z,1013.88
2022-10-13T09:08:09.554Z,1013.94
2022-10-13T09:09:09.204Z,1013.95
2022-10-13T09:10:09.046Z,1013.95
2022-10-13T09:11:09.083Z,1013.91
2022-10-13T09:12:09.014Z,1013.91
2022-10-13T09:13:08.974Z,1013.96
2022-10-13T09:14:10.428Z,1013.91
2022-10-13T09:15:09.032Z,1013.94
2022-10-13T09:16:09.085Z,1013.92
2022-10-13T09:17:10.389Z,1013.94
2022-10-13T09:18:09.128Z,1013.96
2022-10-13T09:19:08.992Z,1013.89
2022-10-13T09:20:10.324Z,1013.89
2022-10-13T09:21:08.956Z,1013.86
2022-10-13T09:22:10.320Z,1013.88
2022-10-13T09:23:08.863Z,1013.80
2022-10-13T09:24:09.239Z,1013.80
2022-10-13T09:25:08.825Z,1013.68
2022-10-13T09:26:10.275Z,1013.78
2022-10-13T09:27:09.349Z,1013.82
2022-10-13T09:28:09.351Z,1013.81
2022-10-13T09:29:10.234Z,1013.79
2022-10-13T09:30:09.446Z,1013.84
2022-10-13T09:31:11.722Z,1013.79
2022-10-13T09:32:09.774Z,1013.83
2022-10-13T09:33:10.922Z,1013.85
2022-10-13T09:34:08.719Z,1013.85
2022-10-13T09:35:08.716Z,1013.84
2022-10-13T09:36:09.562Z,1013.80
2022-10-13T09:37:09.639Z,1013.86
2022-10-13T09:38:08.697Z,1013.84
2022-10-13T09:39:08.858Z,1013.90
2022-10-13T09:40:08.924Z,1013.88
2022-10-13T09:41:08.642Z,1013.83
2022-10-13T09:42:08.627Z,1013.83
2022-10-13T09:43:08.628Z,1013.86
2022-10-13T09:44:08.624Z,1013.84
2022-10-13T09:45:08.626Z,1013.85
2022-10-13T09:46:08.586Z,1013.89
2022-10-13T09:47:09.001Z,1013.87
2022-10-13T09:48:08.571Z,1013.84
2022-10-13T09:49:08.616Z,1013.84
2022-10-13T09:50:08.555Z,1013.73
2022-10-13T09:51:08.828Z,1013.81
2022-10-13T09:52:08.605Z,1013.74
2022-10-13T09:53:09.141Z,1013.73
2022-10-13T09:54:08.525Z,1013.72
2022-10-13T09:55:08.518Z,1013.74
2022-10-13T09:56:09.967Z,1013.72
2022-10-13T09:57:08.506Z,1013.76
2022-10-13T09:58:08.550Z,1013.73
2022-10-13T09:59:08.928Z,1013.66
2022-10-13T10:00:08.487Z,1013.65
2022-10-13T10:01:08.649Z,1013.65
2022-10-13T10:02:08.413Z,1013.60
2022-10-13T10:03:09.092Z,1013.67
2022-10-13T10:04:08.476Z,1013.56
2022-10-13T10:05:08.927Z,1013.61
2022-10-13T10:06:08.364Z,1013.60
2022-10-13T10:07:08.449Z,1013.59
2022-10-13T10:08:08.727Z,1013.62
2022-10-13T10:09:08.338Z,1013.52
2022-10-13T10:10:08.868Z,1013.59
2022-10-13T10:11:08.400Z,1013.55
2022-10-13T10:12:08.900Z,1013.53
2022-10-13T10:13:08.303Z,1013.55
2022-10-13T10:14:08.328Z,1013.57
2022-10-13T10:15:08.289Z,1013.59
2022-10-13T10:16:08.290Z,1013.50
2022-10-13T10:17:08.253Z,1013.53
2022-10-13T10:18:08.230Z,1013.55
2022-10-13T10:19:08.221Z,1013.48
2022-10-13T10:20:08.214Z,1013.50
2022-10-13T10:21:08.613Z,1013.46
2022-10-13T10:22:14.737Z,1013.43
2022-10-13T10:23:09.039Z,1013.41
2022-10-13T10:24:08.929Z,1013.41
2022-10-13T10:25:08.155Z,1013.40
2022-10-13T10:26:08.238Z,1013.41
2022-10-13T10:27:08.239Z,1013.35
2022-10-13T10:28:08.214Z,1013.43
2022-10-13T10:29:08.145Z,1013.39
2022-10-13T10:30:08.120Z,1013.40
2022-10-13T10:31:08.129Z,1013.33
2022-10-13T10:32:08.070Z,1013.38
2022-10-13T10:33:08.108Z,1013.38
2022-10-13T10:34:08.073Z,1013.36
2022-10-13T10:35:08.058Z,1013.42
2022-10-13T10:36:08.038Z,1013.39
2022-10-13T10:37:08.038Z,1013.38
2022-10-13T10:38:08.022Z,1013.37
2022-10-13T10:39:08.033Z,1013.39
2022-10-13T10:40:07.997Z,1013.40
2022-10-13T10:41:07.999Z,1013.41
2022-10-13T10:42:08.824Z,1013.41
2022-10-13T10:43:07.969Z,1013.36
2022-10-13T10:44:08.080Z,1013.32
2022-10-13T10:45:07.940Z,1013.38
2022-10-13T10:46:07.998Z,1013.31
2022-10-13T10:47:07.900Z,1013.32
2022-10-13T10:48:07.919Z,1013.30
2022-10-13T10:49:07.928Z,1013.29
2022-10-13T10:50:07.929Z,1013.32
2022-10-13T10:51:08.822Z,1013.29
2022-10-13T10:52:07.890Z,1013.33
2022-10-13T10:53:08.089Z,1013.24
2022-10-13T10:54:08.045Z,1013.26
2022-10-13T10:55:08.650Z,1013.17
2022-10-13T10:56:07.824Z,1013.21
2022-10-13T10:57:08.063Z,1013.23
2022-10-13T10:58:08.065Z,1013.18
2022-10-13T10:59:07.830Z,1013.14
2022-10-13T11:00:07.956Z,1013.12
2022-10-13T11:01:07.999Z,1013.14
2022-10-13T11:02:07.747Z,1013.13
2022-10-13T11:03:07.766Z,1013.13
2022-10-13T11:04:09.184Z,1013.11
2022-10-13T11:05:07.796Z,1013.10
2022-10-13T11:06:09.157Z,1013.13
2022-10-13T11:07:07.698Z,1013.12
2022-10-13T11:08:07.735Z,1013.10
2022-10-13T11:09:08.073Z,1013.09
2022-10-13T11:10:08.626Z,1013.11
2022-10-13T11:11:08.597Z,1013.08
2022-10-13T11:12:07.637Z,1013.05
2022-10-13T11:13:07.618Z,1013.04
2022-10-13T11:14:07.672Z,1013.06
2022-10-13T11:15:07.776Z,1013.04
2022-10-13T11:16:07.599Z,1013.04
2022-10-13T11:17:07.584Z,1013.04
2022-10-13T11:18:09.040Z,1013.05
2022-10-13T11:19:07.561Z,1013.06
2022-10-13T11:20:07.564Z,1013.12
2022-10-13T11:21:07.546Z,1013.06
2022-10-13T11:22:07.544Z,1013.05
2022-10-13T11:23:07.519Z,1013.06
2022-10-13T11:24:07.505Z,1013.07
2022-10-13T11:25:08.330Z,1013.09
2022-10-13T11:26:07.595Z,1013.11
2022-10-13T11:27:07.487Z,1013.06
2022-10-13T11:28:08.913Z,1013.08
2022-10-13T11:29:07.457Z,1013.09
2022-10-13T11:30:07.497Z,1013.10
2022-10-13T11:31:07.425Z,1013.03
2022-10-13T11:32:07.529Z,1013.00
2022-10-13T11:33:07.504Z,1013.08
2022-10-13T11:34:07.470Z,1013.05
2022-10-13T11:35:07.426Z,1012.99
2022-10-13T11:36:07.428Z,1013.00
2022-10-13T11:37:07.365Z,1013.00
2022-10-13T11:38:08.415Z,1013.00
2022-10-13T11:39:07.345Z,1013.01
2022-10-13T11:40:07.336Z,1012.99
2022-10-13T11:41:07.329Z,1012.98
2022-10-13T11:42:07.350Z,1012.93
2022-10-13T11:43:08.561Z,1012.95
2022-10-13T11:44:07.279Z,1012.99
2022-10-13T11:45:07.275Z,1013.00
2022-10-13T11:46:07.274Z,1012.99
2022-10-13T11:47:07.271Z,1012.95
2022-10-13T11:48:07.320Z,1012.93
2022-10-13T11:49:07.240Z,1012.99
2022-10-13T11:50:07.313Z,1012.91
2022-10-13T11:51:07.226Z,1012.99
2022-10-13T11:52:07.316Z,1012.96
2022-10-13T11:53:07.174Z,1012.94
2022-10-13T11:54:07.233Z,1013.00
2022-10-13T11:55:07.295Z,1012.98
2022-10-13T11:56:07.373Z,1012.97
2022-10-13T11:57:07.264Z,1012.96
2022-10-13T11:58:07.132Z,1013.01
2022-10-13T11:59:07.263Z,1013.01
2022-10-13T12:00:07.241Z,1013.05
2022-10-13T12:01:07.111Z,1013.05
2022-10-13T12:02:07.086Z,1013.05
2022-10-13T12:03:07.189Z,1013.01
2022-10-13T12:04:07.065Z,1013.02
2022-10-13T12:05:08.045Z,1012.99
2022-10-13T12:06:07.057Z,1013.01